createdAt,value
2023-04-02T00:00:00.349Z,7.8
2023-04-02T00:10:00.376Z,7.6
2023-04-02T00:20:00.343Z,7.6
2023-04-02T00:30:00.336Z,7.7
2023-04-02T00:40:00.379Z,7.6
2023-04-02T00:50:00.352Z,7.6
2023-04-02T01:00:00.352Z,7.4
2023-04-02T01:10:00.346Z,7.4
2023-04-02T01:20:00.339Z,7.3
2023-04-02T01:30:00.338Z,7.3
2023-04-02T01:40:00.331Z,7.3
2023-04-02T01:50:00.321Z,7.4
2023-04-02T02:00:00.350Z,7.7
2023-04-02T02:10:00.345Z,7.6
2023-04-02T02:20:00.631Z,7.5
2023-04-02T02:30:00.337Z,7.5
2023-04-02T02:40:00.380Z,7.6
2023-04-02T02:50:00.457Z,7.5
2023-04-02T03:00:00.435Z,7.6
2023-04-02T03:10:00.319Z,7.6
2023-04-02T03:20:00.335Z,7.5
2023-04-02T03:30:00.329Z,7.5
2023-04-02T03:40:00.394Z,7.5
2023-04-02T03:50:00.323Z,7.4
2023-04-02T04:00:00.348Z,7.7
2023-04-02T04:10:00.335Z,7.7
2023-04-02T04:20:00.322Z,7.7
2023-04-02T04:30:00.352Z,7.7
2023-04-02T04:40:00.352Z,7.9
2023-04-02T04:50:00.329Z,8.1
2023-04-02T05:00:00.355Z,7.8
2023-04-02T05:10:00.368Z,7.8
2023-04-02T05:20:00.324Z,8.1
2023-04-02T05:30:00.327Z,9.1
2023-04-02T05:40:00.346Z,9.4
2023-04-02T05:50:00.340Z,9.7
2023-04-02T06:00:00.335Z,10.9
2023-04-02T06:10:00.330Z,11.2
2023-04-02T06:20:00.325Z,11.4
2023-04-02T06:30:00.342Z,12.4
2023-04-02T06:40:00.373Z,13.4
2023-04-02T06:50:00.369Z,12.8
2023-04-02T07:00:00.333Z,12.1
2023-04-02T07:10:00.331Z,11.4
2023-04-02T07:20:00.329Z,11.6
2023-04-02T07:30:00.323Z,11.8
2023-04-02T07:40:00.362Z,12.1
2023-04-02T07:50:00.354Z,12.5
2023-04-02T08:00:00.350Z,12.8
2023-04-02T08:10:00.335Z,13.1
2023-04-02T08:20:00.352Z,13.1
2023-04-02T08:30:00.378Z,12.5
2023-04-02T08:40:00.339Z,12.1
2023-04-02T08:50:00.327Z,12.4
2023-04-02T09:00:00.333Z,12.3
2023-04-02T09:10:00.324Z,12.7
2023-04-02T09:20:00.322Z,13.1
2023-04-02T09:30:00.353Z,12.9
2023-04-02T09:40:00.336Z,13.3
2023-04-02T09:50:00.340Z,13.5
2023-04-02T10:00:00.341Z,13.5
2023-04-02T10:10:00.322Z,13.4
2023-04-02T10:20:00.335Z,13.7
2023-04-02T10:30:00.332Z,13.6
2023-04-02T10:40:00.337Z,14.3
2023-04-02T10:50:00.330Z,15.5
2023-04-02T11:00:00.373Z,16.0
2023-04-02T11:10:00.338Z,17.2
2023-04-02T11:20:00.331Z,15.7
2023-04-02T11:30:00.332Z,18.2
2023-04-02T11:40:00.401Z,16.1
2023-04-02T11:50:00.409Z,16.5
2023-04-02T12:00:00.331Z,17.2
2023-04-02T12:10:00.327Z,16.9
2023-04-02T12:20:00.322Z,16.2
2023-04-02T12:30:00.330Z,14.5
2023-04-02T12:40:00.470Z,15.6
2023-04-02T12:50:00.342Z,17.3
2023-04-02T13:00:00.335Z,17.8
2023-04-02T13:10:00.330Z,17.6
2023-04-02T13:20:00.336Z,17.2
2023-04-02T13:30:00.323Z,16.7
2023-04-02T13:40:00.322Z,17.4
2023-04-02T13:50:00.345Z,17.9
2023-04-02T14:00:00.334Z,15.3
2023-04-02T14:10:00.328Z,13.8
2023-04-02T14:20:00.363Z,10.6
2023-04-02T14:30:00.354Z,10.1
2023-04-02T14:40:00.339Z,9.8
2023-04-02T14:50:00.475Z,10.1
2023-04-02T15:00:00.339Z,10.1
2023-04-02T15:10:00.373Z,10.4
2023-04-02T15:20:00.352Z,11.0
2023-04-02T15:30:00.325Z,12.1
2023-04-02T15:40:00.341Z,12.9
2023-04-02T15:50:00.332Z,13.1
2023-04-02T16:00:00.338Z,12.8
2023-04-02T16:10:00.325Z,12.2
2023-04-02T16:20:00.336Z,11.4
2023-04-02T16:30:00.339Z,10.6
2023-04-02T16:40:00.349Z,10.2
2023-04-02T16:50:00.323Z,9.9
2023-04-02T17:00:00.330Z,9.3
2023-04-02T17:10:00.331Z,8.9
2023-04-02T17:20:00.339Z,8.5
2023-04-02T17:30:00.336Z,8.2
2023-04-02T17:40:00.334Z,7.7
2023-04-02T17:50:00.327Z,7.5
2023-04-02T18:00:00.367Z,7.3
2023-04-02T18:10:00.326Z,7.2
2023-04-02T18:20:00.326Z,7.2
2023-04-02T18:30:00.378Z,7.4
2023-04-02T18:40:00.392Z,7.2
2023-04-02T18:50:00.329Z,7.3
2023-04-02T19:00:00.349Z,7.2
2023-04-02T19:10:00.342Z,7.2
2023-04-02T19:20:00.351Z,6.9
2023-04-02T19:30:00.358Z,7.1
2023-04-02T19:40:00.354Z,6.8
2023-04-02T19:50:00.345Z,6.6
2023-04-02T20:00:00.448Z,6.6
2023-04-02T20:10:00.329Z,6.7
2023-04-02T20:20:00.376Z,6.8
2023-04-02T20:30:00.357Z,7.2
2023-04-02T20:40:00.347Z,7.2
2023-04-02T20:50:00.331Z,7.4
2023-04-02T21:00:00.347Z,7.0
2023-04-02T21:10:00.341Z,6.5
2023-04-02T21:20:00.346Z,5.8
2023-04-02T21:30:00.325Z,5.2
2023-04-02T21:40:00.336Z,5.1
2023-04-02T21:50:00.325Z,5.3
2023-04-02T22:00:00.379Z,5.0
2023-04-02T22:10:00.383Z,4.7
2023-04-02T22:20:00.352Z,4.6
2023-04-02T22:30:00.332Z,4.4
2023-04-02T22:40:00.391Z,4.6
2023-04-02T22:50:00.327Z,5.0
2023-04-02T23:00:00.419Z,5.1
2023-04-02T23:10:00.318Z,5.1
2023-04-02T23:20:00.331Z,5.1
2023-04-02T23:30:00.336Z,5.1
2023-04-02T23:40:00.335Z,5.2
2023-04-02T23:50:00.338Z,5.2
